KALN/ALN METAR and TAF weather

Enter ICAO airport designator
Station Type Date Time Source
KALN METAR 2019/08/19 11:50 UTC NOAA

KALN 191150Z 00000KT 10SM SCT090 21/21 A3000


Station Type Date Time Source
KALN Decoded METAR 2019/08/19 11:50 UTC NOAA

Station name not available
Aug 19, 2019 - 07:50 AM EDT / 2019.08.19 1150 UTC
Wind: Calm:0
Visibility: 10 mile(s):0
Sky conditions: partly cloudy
Temperature: 69 F (21 C)
Dew Point: 69 F (21 C)
Relative Humidity: 100%
Pressure (altimeter): 30 in. Hg (1015 hPa)
ob: KALN 191150Z 00000KT 10SM SCT090 21/21 A3000
cycle: 12

Station Type Date Time Source
KALN TAF UTC NOAA

Error!

Example: see airport list